Time;durP1;ratioP1;P1;durP2;ratioP2;P2;SDS_P1;SDS_P2;PMS_P1;PMS_P2;Temp;Humidity;BMP_temperature;BMP_pressure;BME280_temperature;BME280_humidity;BME280_pressure;Samples;Min_cycle;Max_cycle;Signal;HPM_P1;HPM_P2
2023/09/15 00:00:33;;;;;;;5.47;2.00;;;14.90;99.90;;;;;;4985892;28;20390;-85
2023/09/15 00:02:58;;;;;;;8.15;1.73;;;14.90;99.90;;;;;;5003011;28;20065;-85
2023/09/15 00:05:28;;;;;;;4.65;1.98;;;14.80;99.90;;;;;;5006459;28;20512;-84
2023/09/15 00:07:57;;;;;;;4.05;2.40;;;14.80;99.90;;;;;;4984804;28;20036;-85
2023/09/15 00:10:22;;;;;;;1.95;1.48;;;14.80;99.90;;;;;;4980907;28;20021;-85
2023/09/15 00:12:48;;;;;;;2.78;1.50;;;14.80;99.90;;;;;;4985936;28;20026;-85
2023/09/15 00:15:15;;;;;;;2.03;1.70;;;14.80;99.90;;;;;;5004343;28;20501;-85
2023/09/15 00:17:42;;;;;;;3.70;2.00;;;14.80;99.90;;;;;;4995943;28;20026;-85
2023/09/15 00:20:16;;;;;;;2.00;1.48;;;14.80;99.90;;;;;;5001508;28;20018;-86
2023/09/15 00:22:49;;;;;;;5.82;2.22;;;14.80;99.90;;;;;;5008333;28;20072;-85
2023/09/15 00:25:25;;;;;;;2.60;1.60;;;14.70;99.90;;;;;;4994872;28;20057;-85
2023/09/15 00:27:58;;;;;;;7.97;1.63;;;14.70;99.90;;;;;;5004211;28;20398;-85
2023/09/15 00:30:24;;;;;;;1.45;1.17;;;14.70;99.90;;;;;;4986893;28;20068;-85
2023/09/15 00:32:51;;;;;;;4.32;1.67;;;14.70;99.90;;;;;;4986269;28;20370;-85
2023/09/15 00:35:18;;;;;;;2.13;1.58;;;14.70;99.90;;;;;;5002865;28;20052;-85
2023/09/15 00:37:48;;;;;;;5.90;1.85;;;14.60;99.90;;;;;;5001491;28;20225;-85
2023/09/15 00:40:19;;;;;;;1.27;1.17;;;14.60;99.90;;;;;;4983189;28;20029;-85
2023/09/15 00:42:46;;;;;;;2.75;1.80;;;14.50;99.90;;;;;;5000770;28;20355;-85
2023/09/15 00:45:15;;;;;;;3.50;1.60;;;14.60;99.90;;;;;;4986595;28;20026;-84
2023/09/15 00:47:46;;;;;;;2.22;1.45;;;14.50;99.90;;;;;;5002581;28;20030;-85
2023/09/15 00:50:18;;;;;;;1.48;1.38;;;14.50;99.90;;;;;;4983049;28;20045;-85
2023/09/15 00:52:50;;;;;;;2.05;1.75;;;14.50;99.90;;;;;;4987025;28;20034;-85
2023/09/15 00:55:21;;;;;;;5.07;1.88;;;14.40;99.90;;;;;;5000434;28;20033;-85
2023/09/15 00:57:52;;;;;;;2.28;1.45;;;14.40;99.90;;;;;;4994364;28;20026;-86
2023/09/15 01:00:19;;;;;;;3.92;1.75;;;14.30;99.90;;;;;;5003318;28;20030;-85
2023/09/15 01:02:46;;;;;;;2.08;1.77;;;14.30;99.90;;;;;;5011389;28;20148;-85
2023/09/15 01:05:20;;;;;;;3.72;1.45;;;14.30;99.90;;;;;;5015959;28;20373;-85
2023/09/15 01:07:47;;;;;;;4.75;2.08;;;14.20;99.90;;;;;;4997956;28;20030;-85
2023/09/15 01:10:14;;;;;;;5.47;1.73;;;14.20;99.90;;;;;;5005854;28;20078;-85
2023/09/15 01:12:41;;;;;;;2.95;2.05;;;14.20;99.90;;;;;;5011924;28;20053;-85
2023/09/15 01:15:07;;;;;;;1.55;1.45;;;14.20;99.90;;;;;;5010371;28;20160;-85
2023/09/15 01:17:49;;;;;;;2.13;1.70;;;14.20;99.90;;;;;;5003073;28;20101;-85
2023/09/15 01:20:37;;;;;;;2.38;1.83;;;14.20;99.90;;;;;;5008356;28;20022;-85
2023/09/15 01:23:37;;;;;;;2.03;1.48;;;14.10;99.90;;;;;;4990895;28;20045;-86
2023/09/15 01:26:10;;;;;;;3.00;1.60;;;14.10;99.90;;;;;;5001338;28;20117;-86
2023/09/15 01:28:53;;;;;;;4.35;1.60;;;14.10;99.90;;;;;;4995526;28;20112;-84
2023/09/15 01:31:20;;;;;;;2.38;1.55;;;14.00;99.90;;;;;;5001163;28;20183;-86
2023/09/15 01:33:46;;;;;;;2.63;1.60;;;14.00;99.90;;;;;;4981465;28;20062;-85
2023/09/15 01:36:12;;;;;;;1.60;1.45;;;13.90;99.90;;;;;;4984587;28;20062;-85
2023/09/15 01:38:37;;;;;;;6.32;1.98;;;13.90;99.90;;;;;;4987022;28;20296;-86
2023/09/15 01:41:04;;;;;;;4.85;1.70;;;13.90;99.90;;;;;;4987298;28;20022;-85
2023/09/15 01:43:29;;;;;;;9.73;1.85;;;13.90;99.90;;;;;;4981521;28;20030;-84
2023/09/15 01:45:55;;;;;;;3.63;1.50;;;13.90;99.90;;;;;;4986971;28;20075;-84
2023/09/15 01:48:26;;;;;;;2.00;1.63;;;13.90;99.90;;;;;;5000971;28;20385;-84
2023/09/15 01:50:53;;;;;;;2.35;1.48;;;13.90;99.90;;;;;;4980855;28;20034;-84
2023/09/15 01:53:19;;;;;;;8.27;2.10;;;13.90;99.90;;;;;;4999571;28;20026;-85
2023/09/15 01:55:46;;;;;;;3.38;1.48;;;13.80;99.90;;;;;;5004764;28;20494;-85
2023/09/15 01:58:12;;;;;;;1.90;1.75;;;13.80;99.90;;;;;;4983629;28;20498;-85
2023/09/15 02:00:38;;;;;;;3.28;1.80;;;13.80;99.90;;;;;;4984068;28;20053;-85
2023/09/15 02:03:04;;;;;;;2.42;1.75;;;13.80;99.90;;;;;;4984117;28;20165;-85
2023/09/15 02:05:30;;;;;;;3.78;1.80;;;13.80;99.90;;;;;;4981076;28;20178;-85
2023/09/15 02:07:57;;;;;;;4.88;1.88;;;13.70;99.90;;;;;;4984169;28;20030;-85
2023/09/15 02:10:23;;;;;;;12.77;2.20;;;13.70;99.90;;;;;;5001036;28;20126;-85
2023/09/15 02:12:49;;;;;;;5.20;1.95;;;13.70;99.90;;;;;;4982583;28;20116;-85
2023/09/15 02:15:15;;;;;;;1.67;1.40;;;13.60;99.90;;;;;;4983208;28;20029;-85
2023/09/15 02:17:40;;;;;;;2.95;1.70;;;13.60;99.90;;;;;;5000029;28;20033;-85
2023/09/15 02:20:13;;;;;;;2.55;1.27;;;13.60;99.90;;;;;;5007871;28;20092;-84
2023/09/15 02:22:43;;;;;;;4.47;1.83;;;13.50;99.90;;;;;;4996616;28;20591;-84
2023/09/15 02:25:09;;;;;;;3.53;1.48;;;13.50;99.90;;;;;;5011472;28;20042;-85
2023/09/15 02:27:37;;;;;;;2.90;1.77;;;13.50;99.90;;;;;;4982851;28;20386;-84
2023/09/15 02:30:03;;;;;;;2.00;1.75;;;13.50;99.90;;;;;;4982884;28;20037;-84
2023/09/15 02:32:29;;;;;;;4.80;2.17;;;13.40;99.90;;;;;;5000841;28;20404;-85
2023/09/15 02:34:54;;;;;;;2.42;1.67;;;13.40;99.90;;;;;;4984601;28;20018;-85
2023/09/15 02:37:20;;;;;;;8.63;2.00;;;13.40;99.90;;;;;;4986290;28;20028;-85
2023/09/15 02:39:46;;;;;;;10.00;1.60;;;13.30;99.90;;;;;;4985123;28;20029;-85
2023/09/15 02:42:12;;;;;;;2.55;1.75;;;13.30;99.90;;;;;;4984160;28;20048;-85
2023/09/15 02:44:37;;;;;;;11.73;1.95;;;13.30;99.90;;;;;;4984665;28;20033;-86
2023/09/15 02:47:03;;;;;;;7.82;1.90;;;13.30;99.90;;;;;;4986548;28;20018;-85
2023/09/15 02:49:29;;;;;;;1.67;1.50;;;13.30;99.90;;;;;;4984329;28;20139;-85
2023/09/15 02:51:57;;;;;;;3.72;1.75;;;13.30;99.90;;;;;;4982730;28;20125;-85
2023/09/15 02:54:22;;;;;;;3.60;1.80;;;13.20;99.90;;;;;;4983885;28;20096;-85
2023/09/15 02:56:48;;;;;;;3.95;2.10;;;13.30;99.90;;;;;;4984772;28;20026;-85
2023/09/15 02:59:14;;;;;;;2.28;1.75;;;13.30;99.90;;;;;;4981750;28;20018;-85
2023/09/15 03:01:39;;;;;;;3.42;1.80;;;13.30;99.90;;;;;;4984797;28;20392;-85
2023/09/15 03:04:05;;;;;;;1.63;1.50;;;13.30;99.90;;;;;;4983602;28;20036;-86
2023/09/15 03:06:31;;;;;;;2.20;1.77;;;13.20;99.90;;;;;;4981379;28;20022;-85
2023/09/15 03:08:57;;;;;;;6.63;1.85;;;13.20;99.90;;;;;;4983745;28;20022;-85
2023/09/15 03:11:23;;;;;;;10.52;1.75;;;13.20;99.90;;;;;;4982436;28;20104;-86
2023/09/15 03:13:49;;;;;;;3.97;1.88;;;13.20;99.90;;;;;;5002142;28;20034;-86
2023/09/15 03:16:17;;;;;;;9.00;1.50;;;13.20;99.90;;;;;;5000382;28;20561;-86
2023/09/15 03:18:46;;;;;;;5.03;1.98;;;13.10;99.90;;;;;;4984172;28;20116;-85
2023/09/15 03:21:12;;;;;;;2.30;1.60;;;13.20;99.90;;;;;;4984591;28;20036;-86
2023/09/15 03:23:42;;;;;;;2.42;1.40;;;13.20;99.90;;;;;;4982378;28;20034;-85
2023/09/15 03:26:10;;;;;;;2.33;1.77;;;13.10;99.90;;;;;;4982459;28;20027;-86
2023/09/15 03:28:36;;;;;;;2.20;2.00;;;13.10;99.90;;;;;;4981266;28;20414;-85
2023/09/15 03:31:06;;;;;;;4.50;1.90;;;13.10;99.90;;;;;;4999756;28;20111;-85
2023/09/15 03:33:32;;;;;;;1.55;1.35;;;13.00;99.90;;;;;;4985330;28;20425;-85
2023/09/15 03:35:58;;;;;;;2.42;2.13;;;13.00;99.90;;;;;;4999469;28;20026;-85
2023/09/15 03:38:24;;;;;;;3.22;1.95;;;13.00;99.90;;;;;;4984144;28;20037;-85
2023/09/15 03:40:50;;;;;;;2.63;1.25;;;13.00;99.90;;;;;;4983303;28;20414;-85
2023/09/15 03:43:15;;;;;;;3.95;1.98;;;13.00;99.90;;;;;;4984062;28;20034;-85
2023/09/15 03:45:46;;;;;;;3.38;2.00;;;12.90;99.90;;;;;;4984469;28;20046;-86
2023/09/15 03:48:11;;;;;;;4.28;1.85;;;12.90;99.90;;;;;;4999792;28;20030;-85
2023/09/15 03:50:37;;;;;;;2.25;1.80;;;12.90;99.90;;;;;;5001855;28;20072;-85
2023/09/15 03:53:03;;;;;;;5.07;1.95;;;12.90;99.90;;;;;;4980810;28;20109;-84
2023/09/15 03:55:28;;;;;;;7.47;1.85;;;12.90;99.90;;;;;;4983841;28;20104;-85
2023/09/15 03:57:54;;;;;;;6.50;2.45;;;12.80;99.90;;;;;;4983497;28;20026;-85
2023/09/15 04:00:21;;;;;;;4.50;2.08;;;12.90;99.90;;;;;;4981333;28;20026;-85
2023/09/15 04:02:48;;;;;;;8.00;2.05;;;12.90;99.90;;;;;;4983395;28;20287;-85
2023/09/15 04:05:13;;;;;;;3.60;1.92;;;12.80;99.90;;;;;;4988049;28;20081;-85
2023/09/15 04:07:39;;;;;;;2.83;2.17;;;12.80;99.90;;;;;;4983895;28;20386;-85
2023/09/15 04:10:05;;;;;;;2.95;1.77;;;12.80;99.90;;;;;;5001780;28;20041;-85
2023/09/15 04:12:32;;;;;;;2.72;2.20;;;12.80;99.90;;;;;;4985284;28;20105;-85
2023/09/15 04:14:59;;;;;;;6.35;2.58;;;12.80;99.90;;;;;;4986747;28;20022;-85
2023/09/15 04:17:24;;;;;;;5.57;1.85;;;12.70;99.90;;;;;;5000644;28;20255;-85
2023/09/15 04:19:50;;;;;;;6.32;2.38;;;12.80;99.90;;;;;;4981082;28;20025;-86
2023/09/15 04:22:16;;;;;;;4.25;2.08;;;12.80;99.90;;;;;;4987973;28;20080;-85
2023/09/15 04:24:44;;;;;;;1.77;1.50;;;12.80;99.90;;;;;;5005399;28;20022;-85
2023/09/15 04:27:09;;;;;;;5.55;1.70;;;12.70;99.90;;;;;;5002208;28;20105;-86
2023/09/15 04:29:52;;;;;;;5.22;1.50;;;12.70;99.90;;;;;;4994954;28;20061;-85
2023/09/15 04:32:18;;;;;;;;;;;12.60;99.90;;;;;;4985760;28;20053;-85
2023/09/15 04:34:44;;;;;;;4.22;2.28;;;12.60;99.90;;;;;;4988144;28;19952;-85
2023/09/15 04:37:10;;;;;;;3.97;2.05;;;12.60;99.90;;;;;;4987452;28;20026;-85
2023/09/15 04:39:35;;;;;;;2.80;1.83;;;12.60;99.90;;;;;;4987616;28;20037;-85
2023/09/15 04:42:01;;;;;;;2.53;2.33;;;12.60;99.90;;;;;;4985387;28;20018;-85
2023/09/15 04:44:26;;;;;;;6.13;2.20;;;12.60;99.90;;;;;;5002034;28;20030;-85
2023/09/15 04:46:52;;;;;;;7.07;2.38;;;12.50;99.90;;;;;;4986370;28;20091;-85
2023/09/15 04:49:17;;;;;;;2.85;2.42;;;12.50;99.90;;;;;;5004022;28;20025;-85
2023/09/15 04:51:43;;;;;;;3.80;2.38;;;12.60;99.90;;;;;;4985101;28;20654;-85
2023/09/15 04:54:09;;;;;;;3.40;2.40;;;12.50;99.90;;;;;;4985436;28;20041;-84
2023/09/15 04:56:34;;;;;;;4.38;2.00;;;12.50;99.90;;;;;;4986752;28;20026;-85
2023/09/15 04:59:00;;;;;;;6.05;2.00;;;12.50;99.90;;;;;;4988425;28;20156;-85
2023/09/15 05:01:26;;;;;;;4.68;2.53;;;12.50;99.90;;;;;;5001071;28;20647;-84
2023/09/15 05:03:51;;;;;;;3.95;2.10;;;12.60;99.90;;;;;;5001014;28;20038;-85
2023/09/15 05:06:19;;;;;;;3.35;1.83;;;12.60;99.90;;;;;;4985698;28;20057;-85
2023/09/15 05:08:45;;;;;;;3.10;2.38;;;12.60;99.90;;;;;;4985643;28;20395;-85
2023/09/15 05:11:10;;;;;;;2.92;2.42;;;12.60;99.90;;;;;;5004150;28;20014;-86
2023/09/15 05:13:38;;;;;;;4.07;2.17;;;12.60;99.90;;;;;;4984116;28;20037;-85
2023/09/15 05:16:07;;;;;;;3.33;2.40;;;12.50;99.90;;;;;;4997136;28;20045;-86
2023/09/15 05:18:33;;;;;;;2.85;1.90;;;12.50;99.90;;;;;;4978264;28;20528;-87
2023/09/15 05:20:58;;;;;;;5.45;2.50;;;12.50;99.90;;;;;;4981367;28;20048;-86
2023/09/15 05:23:24;;;;;;;4.88;2.88;;;12.50;99.90;;;;;;4986040;28;20068;-86
2023/09/15 05:25:53;;;;;;;5.97;2.00;;;12.60;99.90;;;;;;4983260;28;20072;-86
2023/09/15 05:28:21;;;;;;;4.25;2.00;;;12.60;99.90;;;;;;4994732;28;20033;-86
2023/09/15 05:30:46;;;;;;;3.40;2.28;;;12.50;99.90;;;;;;4983262;28;20037;-86
2023/09/15 05:33:12;;;;;;;4.88;2.40;;;12.60;99.90;;;;;;4986869;28;20228;-86
2023/09/15 05:35:38;;;;;;;4.32;2.03;;;12.60;99.90;;;;;;4988664;28;20026;-86
2023/09/15 05:38:03;;;;;;;4.28;2.35;;;12.60;99.90;;;;;;5003818;28;20022;-86
2023/09/15 05:40:29;;;;;;;2.45;2.13;;;12.60;99.90;;;;;;5003528;28;20048;-86
2023/09/15 05:42:57;;;;;;;2.78;2.00;;;12.60;99.90;;;;;;5021713;28;20090;-86
2023/09/15 05:45:25;;;;;;;2.53;1.77;;;12.70;99.90;;;;;;5010483;28;20030;-86
2023/09/15 05:47:50;;;;;;;3.08;2.33;;;12.70;99.90;;;;;;5004982;28;20017;-86
2023/09/15 05:50:16;;;;;;;4.90;2.55;;;12.70;99.90;;;;;;5024325;28;20081;-86
2023/09/15 05:52:41;;;;;;;2.55;1.85;;;12.70;99.90;;;;;;4993561;28;20037;-87
2023/09/15 05:55:08;;;;;;;3.25;2.40;;;12.70;99.90;;;;;;4990633;28;20018;-86
2023/09/15 05:57:34;;;;;;;7.65;2.60;;;12.80;99.90;;;;;;4988374;28;20030;-86
2023/09/15 05:59:59;;;;;;;4.68;2.95;;;12.90;99.90;;;;;;4987645;28;20470;-86
2023/09/15 06:02:25;;;;;;;5.30;2.67;;;12.90;99.90;;;;;;4988909;28;20482;-86
2023/09/15 06:04:51;;;;;;;2.83;2.30;;;13.00;99.90;;;;;;4985583;28;20042;-89
2023/09/15 06:07:17;;;;;;;8.38;2.20;;;13.00;99.90;;;;;;4985395;28;20438;-88
2023/09/15 06:09:43;;;;;;;5.18;2.25;;;13.00;99.90;;;;;;4997056;28;20034;-80
2023/09/15 06:12:09;;;;;;;3.47;2.20;;;13.10;99.90;;;;;;4986921;28;20292;-81
2023/09/15 06:14:38;;;;;;;4.43;2.00;;;13.10;99.90;;;;;;4986242;28;20029;-81
2023/09/15 06:17:04;;;;;;;4.70;2.10;;;13.10;99.90;;;;;;4982772;28;20033;-82
2023/09/15 06:19:29;;;;;;;4.70;2.33;;;13.00;99.90;;;;;;5000649;28;20025;-83
2023/09/15 06:21:55;;;;;;;3.40;2.35;;;13.10;99.90;;;;;;4986024;28;20057;-83
2023/09/15 06:24:23;;;;;;;3.33;1.98;;;13.10;99.90;;;;;;5001817;28;20164;-82
2023/09/15 06:26:52;;;;;;;5.95;1.70;;;13.10;99.90;;;;;;5002835;28;20042;-80
2023/09/15 06:29:18;;;;;;;2.10;1.95;;;13.20;99.90;;;;;;5003068;28;20032;-81
2023/09/15 06:31:44;;;;;;;7.97;2.50;;;13.20;99.90;;;;;;4986439;28;20030;-83
2023/09/15 06:34:09;;;;;;;5.47;2.20;;;13.30;99.90;;;;;;4997984;28;20270;-85
2023/09/15 06:36:39;;;;;;;48.63;14.95;;;13.40;99.90;;;;;;5006878;28;20052;-82
2023/09/15 06:39:06;;;;;;;144.30;49.47;;;13.50;99.90;;;;;;4994474;28;20044;-86
2023/09/15 06:41:32;;;;;;;3.65;2.00;;;13.50;99.90;;;;;;4984644;28;20014;-82
2023/09/15 06:44:01;;;;;;;3.75;2.22;;;13.60;99.90;;;;;;4997585;28;20425;-82
2023/09/15 06:46:27;;;;;;;4.43;2.20;;;13.70;99.90;;;;;;4983095;28;20540;-82
2023/09/15 06:48:53;;;;;;;6.07;1.85;;;13.80;99.90;;;;;;5003083;28;20041;-82
2023/09/15 06:51:18;;;;;;;3.58;2.28;;;13.80;99.90;;;;;;4997840;28;20109;-82
2023/09/15 06:53:45;;;;;;;2.80;2.20;;;13.90;99.90;;;;;;4986279;28;20116;-82
2023/09/15 06:56:11;;;;;;;3.88;2.20;;;13.90;99.90;;;;;;4985502;28;20027;-82
2023/09/15 06:58:36;;;;;;;7.18;3.05;;;14.00;99.90;;;;;;4982442;28;20520;-82
2023/09/15 07:01:04;;;;;;;4.95;2.40;;;14.10;99.90;;;;;;4992571;28;20092;-82
2023/09/15 07:03:30;;;;;;;2.05;1.85;;;14.10;99.90;;;;;;4978835;28;20038;-81
2023/09/15 07:05:58;;;;;;;4.57;1.98;;;14.20;99.90;;;;;;4977467;28;20195;-83
2023/09/15 07:08:27;;;;;;;45.90;15.98;;;14.30;99.90;;;;;;4985486;28;20378;-81
2023/09/15 07:13:47;;;;;;;3.03;2.30;;;14.50;99.90;;;;;;4999825;28;20045;-83
2023/09/15 07:16:16;;;;;;;1.98;1.73;;;14.60;99.90;;;;;;4988698;28;20022;-85
2023/09/15 07:18:45;;;;;;;4.97;1.73;;;14.70;99.90;;;;;;5003974;28;20395;-84
2023/09/15 07:21:13;;;;;;;2.25;1.95;;;14.90;99.90;;;;;;4976190;28;20026;-82
2023/09/15 07:23:55;;;;;;;4.68;2.67;;;14.90;99.90;;;;;;5136277;23;20558;-80
2023/09/15 07:26:24;;;;;;;60.92;21.20;;;15.00;99.90;;;;;;4970841;28;20026;-82
2023/09/15 07:29:07;;;;;;;47.65;15.20;;;15.10;99.90;;;;;;4976607;28;20894;-88
2023/09/15 07:31:42;;;;;;;11.02;3.15;;;15.10;99.90;;;;;;4974719;28;20030;-87
2023/09/15 07:34:23;;;;;;;3.45;2.30;;;15.30;99.90;;;;;;4968007;28;20039;-84
2023/09/15 07:36:50;;;;;;;3.38;1.73;;;15.40;99.90;;;;;;4969196;28;20050;-86
2023/09/15 07:39:21;;;;;;;2.63;2.13;;;15.50;99.90;;;;;;4977566;28;20019;-86
2023/09/15 07:41:47;;;;;;;2.25;2.05;;;15.50;99.90;;;;;;4965136;28;20030;-85
2023/09/15 07:44:15;;;;;;;2.22;1.67;;;15.70;99.90;;;;;;4964401;28;20065;-85
2023/09/15 07:46:41;;;;;;;4.47;2.47;;;15.80;99.90;;;;;;4964022;28;20023;-86
2023/09/15 07:49:08;;;;;;;6.50;2.22;;;16.00;99.90;;;;;;4970739;28;20045;-81
2023/09/15 07:51:44;;;;;;;1.95;1.63;;;16.10;99.90;;;;;;4965512;28;20490;-81
2023/09/15 07:54:20;;;;;;;;;;;;;;;;;;;;;
2023/09/15 07:56:58;;;;;;;307.67;97.78;;;16.30;99.90;;;;;;4979750;28;20026;-91
2023/09/15 07:59:24;;;;;;;45.80;13.95;;;16.50;99.90;;;;;;4962081;28;20121;-88
2023/09/15 08:01:50;;;;;;;3.53;2.15;;;16.60;99.90;;;;;;4965025;28;20098;-81
2023/09/15 08:04:16;;;;;;;2.38;1.80;;;16.70;99.90;;;;;;4974773;28;20053;-82
2023/09/15 08:06:43;;;;;;;2.88;1.90;;;16.80;99.90;;;;;;4957998;28;20027;-85
2023/09/15 08:09:11;;;;;;;2.22;1.52;;;16.90;99.90;;;;;;4964570;28;20104;-86
2023/09/15 08:11:44;;;;;;;3.97;1.80;;;17.00;99.90;;;;;;4968250;28;20034;-79
2023/09/15 08:14:16;;;;;;;2.50;1.35;;;17.20;99.90;;;;;;4959523;28;20474;-84
2023/09/15 08:16:52;;;;;;;;;;;;;;;;;;;;;
2023/09/15 08:19:19;;;;;;;3.08;1.98;;;17.50;99.90;;;;;;4969912;28;20293;-81
2023/09/15 08:21:48;;;;;;;5.68;1.98;;;17.50;99.90;;;;;;4974641;28;20031;-81
2023/09/15 08:24:16;;;;;;;8.48;1.92;;;17.70;99.90;;;;;;4961958;28;20491;-82
2023/09/15 08:26:44;;;;;;;2.85;2.03;;;17.80;99.90;;;;;;4972214;28;20090;-86
2023/09/15 08:29:11;;;;;;;4.20;1.52;;;18.00;99.90;;;;;;4976102;28;20023;-92
2023/09/15 08:31:37;;;;;;;13.48;4.57;;;18.10;99.90;;;;;;4959559;28;20116;-85
2023/09/15 08:34:02;;;;;;;29.35;10.23;;;18.30;99.90;;;;;;4957468;28;20915;-83
2023/09/15 08:36:31;;;;;;;12.98;5.35;;;18.40;99.90;;;;;;4979867;28;20045;-82
2023/09/15 08:38:56;;;;;;;1.98;1.50;;;18.50;99.90;;;;;;4976133;28;20027;-83
2023/09/15 08:41:28;;;;;;;2.45;1.92;;;18.70;99.90;;;;;;4961920;28;20034;-90
2023/09/15 08:43:55;;;;;;;2.50;1.40;;;18.80;99.90;;;;;;4967768;28;20663;-84
2023/09/15 08:46:25;;;;;;;4.30;2.08;;;19.00;99.90;;;;;;4965219;28;20042;-96
2023/09/15 08:48:59;;;;;;;3.42;1.52;;;19.10;99.90;;;;;;4969620;28;20101;-86
2023/09/15 08:51:27;;;;;;;2.40;1.80;;;19.30;99.90;;;;;;4967468;28;20114;-86
2023/09/15 08:53:56;;;;;;;4.20;1.98;;;19.60;99.90;;;;;;4980526;28;20469;-90
2023/09/15 08:56:22;;;;;;;2.08;1.60;;;19.70;99.90;;;;;;4963906;28;20487;-85
2023/09/15 08:58:48;;;;;;;1.92;1.48;;;19.80;99.90;;;;;;4973506;28;20165;-85
2023/09/15 09:01:24;;;;;;;4.05;1.70;;;19.80;99.90;;;;;;4979451;28;20555;-83
2023/09/15 09:03:57;;;;;;;2.28;2.00;;;20.00;99.90;;;;;;4973139;28;20043;-85
2023/09/15 09:06:28;;;;;;;51.92;17.73;;;20.20;99.90;;;;;;4979049;28;20119;-80
2023/09/15 09:09:07;;;;;;;15.73;5.85;;;20.50;99.90;;;;;;4961259;28;20018;-82
2023/09/15 09:11:38;;;;;;;18.25;6.10;;;20.90;99.90;;;;;;4960694;28;20114;-83
2023/09/15 09:14:13;;;;;;;18.80;5.70;;;21.20;99.90;;;;;;4956598;28;20057;-84
2023/09/15 09:16:44;;;;;;;1.98;1.77;;;21.40;99.90;;;;;;4950502;28;20090;-82
2023/09/15 09:19:10;;;;;;;3.05;1.83;;;21.70;99.90;;;;;;4962154;28;20015;-85
2023/09/15 09:24:28;;;;;;;2.55;1.85;;;22.00;98.50;;;;;;2282693;23;20051;-80
2023/09/15 09:27:19;;;;;;;;;;;;;;;;;;;;;
2023/09/15 09:29:56;;;;;;;;;;;;;;;;;;;;;
2023/09/15 09:32:26;;;;;;;2.28;1.48;;;22.70;94.90;;;;;;4974485;28;20072;-81
2023/09/15 09:34:56;;;;;;;1.73;1.63;;;23.00;94.30;;;;;;4965994;28;20079;-86
2023/09/15 09:37:26;;;;;;;1.63;1.52;;;23.20;95.50;;;;;;4949984;28;20039;-85
2023/09/15 09:39:57;;;;;;;2.50;1.75;;;23.60;92.40;;;;;;4960529;28;20038;-84
2023/09/15 09:42:55;;;;;;;;;;;;;;;;;;;;;
2023/09/15 09:45:14;;;;;;;2.60;1.27;;;23.20;90.90;;;;;;4961100;28;20379;-85
2023/09/15 09:47:40;;;;;;;3.10;1.83;;;23.20;91.60;;;;;;4969118;28;20092;-82
2023/09/15 09:50:09;;;;;;;16.77;7.55;;;23.30;91.00;;;;;;4956585;28;20041;-80
2023/09/15 09:52:39;;;;;;;18.33;5.13;;;23.40;91.30;;;;;;4976697;28;20053;-80
2023/09/15 09:55:13;;;;;;;2.60;1.73;;;23.70;90.00;;;;;;4960422;28;20386;-84
2023/09/15 09:57:40;;;;;;;5.63;2.53;;;23.80;90.20;;;;;;4977667;28;20100;-85
2023/09/15 10:00:10;;;;;;;1.40;1.30;;;23.70;88.10;;;;;;4958587;28;20095;-80
2023/09/15 10:03:28;;;;;;;2.47;2.28;;;23.70;90.70;;;;;;4964509;28;20022;-81
2023/09/15 10:05:40;;;;;;;;;;;;;;;;;;;;;
2023/09/15 10:08:06;;;;;;;2.42;1.98;;;23.40;87.90;;;;;;4975787;28;20023;-84
2023/09/15 10:10:40;;;;;;;3.90;1.80;;;23.20;87.80;;;;;;4961719;28;20390;-85
2023/09/15 10:13:07;;;;;;;2.00;1.85;;;23.30;87.30;;;;;;4958667;28;20038;-84
2023/09/15 10:15:37;;;;;;;1.95;1.77;;;23.40;88.30;;;;;;4955497;28;20029;-84
2023/09/15 10:18:04;;;;;;;2.25;1.90;;;23.50;85.40;;;;;;4966245;28;20023;-83
2023/09/15 10:20:31;;;;;;;1.40;1.35;;;23.60;86.40;;;;;;4964084;28;20365;-86
2023/09/15 10:22:58;;;;;;;1.95;1.85;;;23.70;84.60;;;;;;4976432;28;20027;-82
2023/09/15 10:25:24;;;;;;;2.35;1.88;;;23.80;87.40;;;;;;4976376;28;20061;-86
2023/09/15 10:27:52;;;;;;;1.98;1.88;;;24.10;85.30;;;;;;4988137;28;20065;-85
2023/09/15 10:30:20;;;;;;;3.40;2.00;;;24.30;85.80;;;;;;4967905;28;20035;-82
2023/09/15 10:32:46;;;;;;;3.17;2.22;;;24.50;85.40;;;;;;4976385;28;20140;-81
2023/09/15 10:35:12;;;;;;;3.75;2.17;;;24.50;82.60;;;;;;4979593;28;20025;-83
2023/09/15 10:37:42;;;;;;;7.55;4.25;;;24.60;82.10;;;;;;4983706;28;20093;-86
2023/09/15 10:40:10;;;;;;;14.70;7.38;;;24.60;82.90;;;;;;4991680;28;20026;-90
2023/09/15 10:42:48;;;;;;;2.45;2.17;;;24.70;83.30;;;;;;4991110;28;20015;-90
2023/09/15 10:45:15;;;;;;;6.07;2.13;;;24.90;83.20;;;;;;4976532;28;20041;-88
2023/09/15 10:47:41;;;;;;;2.55;2.38;;;24.80;80.50;;;;;;4952660;28;20042;-91
2023/09/15 10:50:09;;;;;;;2.90;2.17;;;24.60;81.00;;;;;;4965712;28;20029;-90
2023/09/15 10:52:37;;;;;;;2.42;2.22;;;24.80;80.10;;;;;;4962004;28;20030;-90
2023/09/15 10:55:05;;;;;;;2.65;1.90;;;24.90;80.00;;;;;;4966124;28;20027;-84
2023/09/15 10:57:36;;;;;;;2.35;2.15;;;24.90;81.00;;;;;;4994377;28;20034;-90
2023/09/15 11:00:06;;;;;;;3.45;2.00;;;24.90;81.40;;;;;;4987988;28;20030;-90
2023/09/15 11:02:35;;;;;;;1.85;1.75;;;25.00;82.20;;;;;;4973709;28;20040;-93
2023/09/15 11:05:00;;;;;;;2.33;2.13;;;25.00;81.00;;;;;;4955935;28;20038;-90
2023/09/15 11:07:28;;;;;;;2.65;2.10;;;25.10;79.50;;;;;;4968258;28;20077;-90
2023/09/15 11:09:56;;;;;;;2.83;2.63;;;25.10;78.90;;;;;;4961945;28;20033;-86
2023/09/15 11:12:23;;;;;;;2.40;2.20;;;24.90;80.70;;;;;;4965734;28;20038;-88
2023/09/15 11:14:48;;;;;;;6.68;2.70;;;24.70;80.70;;;;;;4960921;28;20030;-86
2023/09/15 11:17:17;;;;;;;3.05;2.33;;;24.70;82.10;;;;;;4960350;28;20485;-87
2023/09/15 11:19:43;;;;;;;2.05;1.95;;;24.80;81.70;;;;;;4972622;28;20046;-85
2023/09/15 11:22:11;;;;;;;3.00;2.40;;;24.80;81.90;;;;;;4960325;28;20030;-85
2023/09/15 11:24:37;;;;;;;3.55;2.78;;;24.80;80.40;;;;;;4974539;28;20544;-88
2023/09/15 11:27:03;;;;;;;3.08;2.80;;;24.90;83.10;;;;;;4973639;28;20073;-86
2023/09/15 11:29:32;;;;;;;2.63;2.30;;;25.10;80.80;;;;;;4974978;28;20482;-86
2023/09/15 11:31:58;;;;;;;2.60;2.00;;;25.20;83.00;;;;;;4959466;28;20148;-86
2023/09/15 11:34:26;;;;;;;2.15;2.03;;;25.30;81.80;;;;;;4963200;28;20231;-84
2023/09/15 11:37:01;;;;;;;32.15;13.85;;;25.30;80.90;;;;;;4977182;28;20022;-87
2023/09/15 11:39:28;;;;;;;3.45;2.85;;;25.30;80.40;;;;;;4966718;28;20015;-86
2023/09/15 11:41:57;;;;;;;3.20;2.97;;;25.40;79.20;;;;;;4958233;28;20092;-87
2023/09/15 11:44:29;;;;;;;2.45;2.25;;;25.40;78.60;;;;;;4961934;28;20302;-86
2023/09/15 11:46:56;;;;;;;1.95;1.83;;;25.40;78.40;;;;;;4962005;28;20053;-88
2023/09/15 11:49:24;;;;;;;3.92;2.20;;;25.40;80.60;;;;;;5088474;23;20057;-86
2023/09/15 11:51:51;;;;;;;2.83;2.65;;;25.40;79.90;;;;;;4961779;28;20398;-86
2023/09/15 11:54:18;;;;;;;3.30;2.28;;;25.70;80.80;;;;;;4982199;28;20054;-86
2023/09/15 11:56:43;;;;;;;2.80;2.55;;;26.00;79.00;;;;;;4984524;28;20482;-87
2023/09/15 11:59:09;;;;;;;2.65;2.15;;;26.20;78.10;;;;;;4979966;28;20027;-85
2023/09/15 12:01:38;;;;;;;2.00;1.88;;;26.10;76.70;;;;;;4965769;28;20061;-88
2023/09/15 12:04:04;;;;;;;2.05;1.95;;;26.00;76.00;;;;;;4968553;28;20133;-86
2023/09/15 12:06:31;;;;;;;2.25;2.10;;;25.90;77.30;;;;;;4963184;28;20391;-89
2023/09/15 12:08:57;;;;;;;4.70;2.70;;;25.80;77.30;;;;;;4977762;28;20129;-86
2023/09/15 12:11:25;;;;;;;3.25;2.63;;;25.80;76.90;;;;;;4962841;28;20065;-87
2023/09/15 12:13:55;;;;;;;1.90;1.80;;;26.00;76.60;;;;;;4976864;28;20018;-86
2023/09/15 12:16:28;;;;;;;2.20;2.00;;;26.20;76.10;;;;;;4979645;28;20022;-87
2023/09/15 12:18:55;;;;;;;2.13;1.92;;;26.00;76.80;;;;;;4961475;28;20041;-87
2023/09/15 12:21:24;;;;;;;2.85;2.65;;;26.10;75.20;;;;;;4963985;28;20193;-88
2023/09/15 12:23:56;;;;;;;2.20;2.00;;;26.00;74.10;;;;;;4985473;28;20039;-88
2023/09/15 12:26:24;;;;;;;2.65;2.45;;;26.20;74.00;;;;;;4956721;28;20920;-90
2023/09/15 12:28:51;;;;;;;2.22;2.05;;;26.40;73.90;;;;;;4972681;28;20195;-86
2023/09/15 12:31:23;;;;;;;1.92;1.83;;;26.50;74.80;;;;;;4973816;28;20086;-87
2023/09/15 12:33:53;;;;;;;;;;;26.50;74.10;;;;;;4980837;28;20034;-87
2023/09/15 12:36:22;;;;;;;1.75;1.65;;;26.70;73.90;;;;;;4957544;28;20287;-86
2023/09/15 12:38:50;;;;;;;2.08;1.98;;;26.40;74.60;;;;;;4979991;28;20046;-88
2023/09/15 12:41:16;;;;;;;2.10;1.90;;;26.40;73.90;;;;;;4983134;28;20041;-87
2023/09/15 12:43:42;;;;;;;2.97;2.65;;;26.40;75.00;;;;;;4968765;28;20042;-87
2023/09/15 12:46:09;;;;;;;1.90;1.80;;;26.40;73.20;;;;;;4968291;28;20454;-88
2023/09/15 12:48:34;;;;;;;2.05;1.88;;;26.30;73.50;;;;;;4979069;28;20041;-87
2023/09/15 12:51:00;;;;;;;3.88;2.17;;;26.10;74.30;;;;;;4982863;28;20023;-87
2023/09/15 12:53:28;;;;;;;1.55;1.55;;;26.20;74.10;;;;;;4973099;28;20043;-87
2023/09/15 12:55:58;;;;;;;2.10;1.90;;;26.20;73.80;;;;;;4982332;28;20089;-87
2023/09/15 12:58:24;;;;;;;2.17;2.03;;;26.30;75.30;;;;;;4966003;28;20525;-87
2023/09/15 13:00:50;;;;;;;3.42;2.13;;;26.40;74.00;;;;;;4968001;28;20037;-87
2023/09/15 13:03:21;;;;;;;3.53;2.13;;;26.50;73.00;;;;;;4980182;28;20591;-86